JP-0073 weather

Tokushima Prefectural Central Hospital Helipad
Tokushima, Tokushima Prefecture, Japan

Public forecast

Using degrees Celsius for public forecast. Weather courtesy of forecast.io.

METAR (pilot weather report)

Closest report is Tokushima Airport/JMSDF Air Base, 5.5 nm (10.2 km) NE. Retrieved 2019/05/21 11:00 UTC (58 minutes ago):

RJOS 211100Z 36007KT 9999 FEW030 BKN/// 21/11 Q1004

TAF (pilot weather forecast)

Closest forecast is Takamatsu Airport, 26.4 nm (48.9 km) WNW. Retrieved 2019/05/21 06:00 UTC (6 hours ago):

TAF RJOT 210505Z 2106/2212 26007KT 9999 FEW030 BECMG 2112/2114 15006KT BECMG 2121/2200 28010KT